Time;durP1;ratioP1;P1;durP2;ratioP2;P2;SDS_P1;SDS_P2;PMS_P1;PMS_P2;Temp;Humidity;BMP_temperature;BMP_pressure;BME280_temperature;BME280_humidity;BME280_pressure;Samples;Min_cycle;Max_cycle;Signal;HPM_P1;HPM_P2
2021/12/12 00:01:27;;;;;;;99.03;22.30;;;10.90;97.70;;;;;;5066236;28;20111;-68
2021/12/12 00:03:56;;;;;;;103.05;21.60;;;10.90;97.70;;;;;;5066532;28;20039;-68
2021/12/12 00:06:24;;;;;;;107.13;23.00;;;10.90;97.70;;;;;;5050355;28;20028;-68
2021/12/12 00:08:56;;;;;;;140.43;23.83;;;10.90;97.70;;;;;;5066138;28;20032;-68
2021/12/12 00:11:29;;;;;;;110.43;23.65;;;10.90;97.70;;;;;;5066822;28;20535;-68
2021/12/12 00:14:04;;;;;;;109.90;22.23;;;10.90;97.70;;;;;;5065694;28;20024;-69
2021/12/12 00:16:30;;;;;;;87.43;21.30;;;10.90;97.70;;;;;;5063372;28;20036;-68
2021/12/12 00:18:56;;;;;;;94.28;22.00;;;10.90;97.70;;;;;;5066258;28;20122;-68
2021/12/12 00:21:25;;;;;;;91.20;21.00;;;11.00;97.70;;;;;;5059334;28;20089;-68
2021/12/12 00:23:51;;;;;;;100.47;20.90;;;10.90;97.70;;;;;;5063662;28;20119;-68
2021/12/12 00:26:17;;;;;;;109.90;20.85;;;10.90;97.70;;;;;;5067139;28;20032;-68
2021/12/12 00:28:44;;;;;;;121.20;20.90;;;11.00;97.70;;;;;;5065836;28;20028;-69
2021/12/12 00:31:12;;;;;;;105.80;20.95;;;10.90;97.70;;;;;;5065941;28;20562;-68
2021/12/12 00:33:41;;;;;;;105.75;20.80;;;11.00;97.70;;;;;;5067810;28;20031;-68
2021/12/12 00:36:08;;;;;;;147.70;24.17;;;10.90;97.70;;;;;;5068001;28;20036;-68
2021/12/12 00:38:35;;;;;;;134.18;22.67;;;11.00;97.70;;;;;;5067606;28;20499;-68
2021/12/12 00:41:06;;;;;;;110.05;21.70;;;11.00;97.70;;;;;;5065629;28;20044;-68
2021/12/12 00:43:42;;;;;;;133.10;21.83;;;11.00;97.70;;;;;;5067060;28;20564;-68
2021/12/12 00:46:10;;;;;;;138.30;21.42;;;11.00;97.70;;;;;;5069440;28;20032;-68
2021/12/12 00:48:38;;;;;;;232.65;24.45;;;11.00;97.80;;;;;;5069589;28;20052;-68
2021/12/12 00:51:07;;;;;;;184.85;24.05;;;11.00;97.70;;;;;;5071676;28;20105;-68
2021/12/12 00:53:34;;;;;;;150.55;22.42;;;11.00;97.70;;;;;;5070671;28;20031;-68
2021/12/12 00:56:00;;;;;;;156.27;22.67;;;11.00;97.70;;;;;;5069129;28;20024;-68
2021/12/12 00:58:26;;;;;;;180.35;22.67;;;11.00;97.80;;;;;;5069627;28;20025;-68
2021/12/12 01:01:17;;;;;;;180.48;22.15;;;11.00;97.80;;;;;;5069294;28;20383;-68
2021/12/12 01:03:51;;;;;;;149.45;21.17;;;11.00;97.80;;;;;;5064320;28;20041;-68
2021/12/12 01:06:18;;;;;;;198.20;22.45;;;11.10;97.80;;;;;;5069317;28;20021;-68
2021/12/12 01:08:45;;;;;;;235.90;22.60;;;11.00;97.80;;;;;;5071993;28;20032;-68
2021/12/12 01:11:18;;;;;;;263.63;23.13;;;11.00;97.80;;;;;;5068468;28;20127;-68
2021/12/12 01:13:45;;;;;;;212.50;20.88;;;11.10;97.80;;;;;;5070694;28;20114;-68
2021/12/12 01:16:20;;;;;;;224.60;22.58;;;11.00;97.80;;;;;;5068782;28;20522;-68
2021/12/12 01:18:51;;;;;;;344.67;24.10;;;11.00;97.80;;;;;;5072583;28;20036;-68
2021/12/12 01:21:24;;;;;;;181.15;21.00;;;11.00;97.80;;;;;;5069844;28;20037;-68
2021/12/12 01:23:58;;;;;;;514.05;27.00;;;11.00;97.80;;;;;;5073104;28;20043;-68
2021/12/12 01:26:28;;;;;;;150.90;18.83;;;11.00;98.00;;;;;;5070276;28;20028;-68
2021/12/12 01:28:56;;;;;;;324.85;23.80;;;11.00;97.80;;;;;;5068459;28;20029;-68
2021/12/12 01:31:28;;;;;;;179.05;20.23;;;11.00;97.80;;;;;;5068051;28;20513;-68
2021/12/12 01:34:08;;;;;;;217.43;20.27;;;11.00;97.80;;;;;;5070501;28;20096;-68
2021/12/12 01:39:35;;;;;;;147.00;19.23;;;11.00;97.80;;;;;;4977347;28;20160;-69
2021/12/12 01:42:25;;;;;;;199.27;20.85;;;11.00;97.80;;;;;;4985855;28;20534;-68
2021/12/12 01:45:24;;;;;;;170.60;20.08;;;11.10;97.90;;;;;;4995173;28;20050;-68
2021/12/12 01:47:59;;;;;;;127.65;19.73;;;11.10;97.90;;;;;;5006112;28;20072;-68
2021/12/12 01:50:39;;;;;;;137.45;20.45;;;11.10;97.90;;;;;;4991709;28;20084;-68
2021/12/12 01:53:09;;;;;;;179.02;21.58;;;11.10;97.90;;;;;;4999414;28;20026;-68
2021/12/12 01:55:56;;;;;;;132.07;21.45;;;11.10;97.90;;;;;;4999602;28;20117;-68
2021/12/12 01:58:26;;;;;;;143.68;20.75;;;11.10;98.00;;;;;;4995906;28;20496;-68
2021/12/12 02:01:15;;;;;;;165.15;21.73;;;11.10;98.00;;;;;;4981610;28;20080;-68
2021/12/12 02:03:47;;;;;;;167.20;21.50;;;11.10;98.00;;;;;;4977199;28;20435;-68
2021/12/12 02:06:14;;;;;;;108.40;20.98;;;11.10;98.00;;;;;;4986937;28;20106;-68
2021/12/12 02:08:41;;;;;;;123.63;21.85;;;11.10;98.00;;;;;;4987752;28;20122;-68
2021/12/12 02:11:15;;;;;;;83.57;19.65;;;11.10;98.00;;;;;;4990649;28;20089;-68
2021/12/12 02:13:45;;;;;;;82.85;20.25;;;11.10;98.00;;;;;;4990445;28;20026;-68
2021/12/12 02:16:12;;;;;;;85.25;19.83;;;11.10;98.00;;;;;;5023385;28;20048;-68
2021/12/12 02:18:45;;;;;;;66.70;18.73;;;11.10;98.00;;;;;;5069908;28;20020;-68
2021/12/12 02:21:22;;;;;;;73.50;18.45;;;11.10;98.00;;;;;;5069322;28;20162;-68
2021/12/12 02:37:30;;;;;;;65.68;17.73;;;11.00;98.00;;;;;;5067164;28;20047;-68
2021/12/12 02:39:57;;;;;;;63.53;17.98;;;11.00;98.00;;;;;;5069866;28;20029;-68
2021/12/12 02:42:24;;;;;;;60.05;15.75;;;11.00;98.10;;;;;;5059422;28;20027;-67
2021/12/12 02:44:55;;;;;;;58.13;16.65;;;11.00;98.10;;;;;;5071547;28;20181;-68
2021/12/12 02:47:31;;;;;;;59.72;17.30;;;11.10;98.20;;;;;;5069060;28;20032;-68
2021/12/12 02:50:13;;;;;;;52.90;15.05;;;11.00;98.20;;;;;;5069353;28;20099;-70
2021/12/12 02:52:46;;;;;;;56.58;16.73;;;11.10;98.20;;;;;;5065826;28;20036;-69
2021/12/12 02:55:29;;;;;;;59.60;17.38;;;11.00;98.20;;;;;;5066290;28;20047;-69
2021/12/12 02:57:57;;;;;;;62.67;17.17;;;11.10;98.20;;;;;;5069126;28;20052;-68
2021/12/12 03:00:27;;;;;;;66.18;18.65;;;11.00;98.20;;;;;;5058687;28;20059;-68
2021/12/12 03:02:58;;;;;;;62.95;17.60;;;11.00;98.60;;;;;;5067587;28;20016;-68
2021/12/12 03:05:28;;;;;;;69.53;17.80;;;11.00;98.30;;;;;;5069773;28;20040;-68
2021/12/12 03:07:54;;;;;;;70.00;18.27;;;11.10;98.80;;;;;;5065426;28;20027;-68
2021/12/12 03:10:25;;;;;;;68.68;17.90;;;11.10;98.30;;;;;;5068391;28;20510;-67
2021/12/12 03:12:51;;;;;;;72.35;18.55;;;11.10;98.30;;;;;;5065117;28;20162;-68
2021/12/12 03:15:29;;;;;;;60.40;17.67;;;11.10;98.30;;;;;;5067198;28;20029;-69
2021/12/12 03:18:02;;;;;;;65.43;17.42;;;11.10;98.30;;;;;;5066428;28;20035;-68
2021/12/12 03:20:35;;;;;;;71.55;18.83;;;11.10;98.30;;;;;;5069214;28;20020;-68
2021/12/12 03:23:20;;;;;;;62.42;17.00;;;11.00;98.20;;;;;;5066057;28;20031;-68
2021/12/12 03:25:53;;;;;;;57.45;17.05;;;11.00;98.10;;;;;;5069707;28;20037;-68
2021/12/12 03:28:22;;;;;;;44.97;15.48;;;11.00;98.10;;;;;;5067103;28;20044;-68
2021/12/12 03:30:54;;;;;;;50.15;16.17;;;10.90;98.10;;;;;;5069320;28;20149;-68
2021/12/12 03:33:21;;;;;;;47.88;15.02;;;10.90;98.20;;;;;;5068028;28;20052;-68
2021/12/12 03:35:52;;;;;;;41.65;14.55;;;11.00;98.20;;;;;;5069924;28;20020;-68
2021/12/12 03:38:18;;;;;;;42.65;14.70;;;11.00;98.30;;;;;;5068520;28;20036;-68
2021/12/12 03:40:45;;;;;;;44.17;15.10;;;11.00;98.30;;;;;;5069613;28;20420;-68
2021/12/12 03:43:13;;;;;;;42.13;15.55;;;11.00;98.30;;;;;;5065798;28;20025;-68
2021/12/12 03:45:42;;;;;;;46.17;15.25;;;11.10;98.40;;;;;;5054092;28;20044;-68
2021/12/12 03:48:13;;;;;;;42.90;15.10;;;11.10;98.30;;;;;;5068457;28;20135;-68
2021/12/12 03:50:42;;;;;;;42.70;14.55;;;11.10;98.30;;;;;;5068535;28;20045;-68
2021/12/12 03:53:08;;;;;;;46.03;15.23;;;11.10;98.30;;;;;;5067723;28;20024;-68
2021/12/12 03:55:34;;;;;;;45.50;15.18;;;11.10;98.30;;;;;;5067857;28;20028;-68
2021/12/12 03:58:03;;;;;;;43.95;14.40;;;11.10;98.30;;;;;;5067195;28;20534;-68
2021/12/12 04:00:46;;;;;;;37.92;13.63;;;11.10;98.20;;;;;;5067239;28;20114;-68
2021/12/12 04:03:13;;;;;;;40.65;14.43;;;11.20;98.20;;;;;;5067672;28;20495;-68
2021/12/12 04:05:43;;;;;;;43.38;14.15;;;11.20;98.20;;;;;;5056649;28;20174;-68
2021/12/12 04:08:09;;;;;;;42.05;14.77;;;11.20;98.20;;;;;;5066309;28;20048;-68
2021/12/12 04:10:35;;;;;;;41.95;14.32;;;11.20;98.20;;;;;;5067892;28;20519;-68
2021/12/12 04:13:01;;;;;;;38.63;13.10;;;11.20;98.20;;;;;;5068195;28;20024;-68
2021/12/12 04:15:27;;;;;;;42.55;14.80;;;11.20;98.20;;;;;;5068299;28;20089;-69
2021/12/12 04:17:53;;;;;;;42.33;14.52;;;11.20;98.20;;;;;;5070037;28;20025;-68
2021/12/12 04:20:28;;;;;;;37.83;12.00;;;11.20;98.20;;;;;;5072904;28;20401;-68
2021/12/12 04:22:54;;;;;;;36.08;12.05;;;11.20;98.20;;;;;;5070459;28;20025;-68
2021/12/12 04:25:21;;;;;;;41.13;13.05;;;11.20;98.20;;;;;;5069117;28;20039;-68
2021/12/12 04:27:48;;;;;;;38.63;12.85;;;11.20;98.20;;;;;;5071643;28;20483;-69
2021/12/12 04:30:15;;;;;;;41.67;13.15;;;11.20;98.20;;;;;;5071852;28;20032;-68
2021/12/12 04:32:42;;;;;;;34.70;12.30;;;11.20;98.20;;;;;;5073822;28;20032;-68
2021/12/12 04:35:20;;;;;;;38.67;12.95;;;11.30;98.20;;;;;;5070630;28;20430;-68
2021/12/12 04:37:47;;;;;;;39.72;12.40;;;11.20;98.20;;;;;;5069488;28;20036;-68
2021/12/12 04:40:17;;;;;;;40.97;12.38;;;11.20;98.10;;;;;;5069527;28;20030;-68
2021/12/12 04:42:45;;;;;;;36.05;12.65;;;11.30;98.10;;;;;;5056342;28;20032;-68
2021/12/12 04:45:13;;;;;;;38.97;12.38;;;11.30;98.10;;;;;;5071241;28;20110;-68
2021/12/12 04:50:45;;;;;;;33.75;11.25;;;11.30;98.10;;;;;;5072902;28;20040;-68
2021/12/12 04:53:15;;;;;;;33.83;11.18;;;11.30;98.20;;;;;;5071523;28;20024;-68
2021/12/12 04:56:08;;;;;;;35.23;10.77;;;11.30;98.10;;;;;;5065710;28;20115;-68
2021/12/12 04:58:37;;;;;;;33.78;10.48;;;11.30;98.10;;;;;;5069039;28;20277;-68
2021/12/12 05:01:20;;;;;;;39.22;10.48;;;11.30;98.10;;;;;;5070277;28;20040;-68
2021/12/12 05:03:51;;;;;;;31.95;10.55;;;11.30;98.20;;;;;;5071190;28;20037;-68
2021/12/12 05:06:27;;;;;;;31.98;9.88;;;11.30;98.10;;;;;;5071234;28;20029;-68
2021/12/12 05:08:58;;;;;;;39.55;10.60;;;11.30;98.20;;;;;;5071031;28;20052;-69
2021/12/12 05:11:47;;;;;;;30.95;9.88;;;11.40;98.20;;;;;;5071895;28;20045;-68
2021/12/12 05:14:22;;;;;;;35.10;9.70;;;11.40;98.20;;;;;;5071093;28;20495;-69
2021/12/12 05:16:52;;;;;;;28.05;9.00;;;11.30;98.10;;;;;;5068922;28;20048;-68
2021/12/12 05:19:24;;;;;;;33.28;9.60;;;11.30;98.10;;;;;;5068564;28;20046;-68
2021/12/12 05:21:56;;;;;;;33.22;9.55;;;11.20;98.00;;;;;;5069874;28;20033;-69
2021/12/12 05:24:25;;;;;;;31.65;9.13;;;11.20;98.10;;;;;;5073124;28;20032;-68
2021/12/12 05:26:58;;;;;;;32.35;9.15;;;11.20;98.00;;;;;;5072642;28;20028;-68
2021/12/12 05:29:30;;;;;;;33.70;9.60;;;11.10;98.00;;;;;;5068653;28;20047;-69
2021/12/12 05:32:00;;;;;;;31.98;9.80;;;11.10;98.10;;;;;;5067970;28;20032;-68
2021/12/12 05:34:30;;;;;;;36.53;9.23;;;11.10;98.20;;;;;;5068285;28;20028;-69
2021/12/12 05:36:57;;;;;;;33.65;8.88;;;11.10;98.20;;;;;;5070520;28;20108;-68
2021/12/12 05:39:25;;;;;;;38.50;9.30;;;11.10;98.20;;;;;;5070719;28;20029;-68
2021/12/12 05:41:53;;;;;;;32.67;9.95;;;11.00;98.20;;;;;;5072225;28;20024;-68
2021/12/12 05:44:20;;;;;;;38.58;12.25;;;11.00;98.20;;;;;;5068154;28;20102;-69
2021/12/12 05:46:46;;;;;;;35.88;11.23;;;11.00;98.10;;;;;;5070020;28;20476;-68
2021/12/12 05:49:12;;;;;;;35.83;14.63;;;11.00;98.10;;;;;;5069661;28;20051;-69
2021/12/12 05:51:38;;;;;;;47.65;13.20;;;10.90;98.10;;;;;;5068494;28;20025;-69
2021/12/12 05:54:05;;;;;;;36.70;12.38;;;10.90;98.10;;;;;;5070415;28;20036;-68
2021/12/12 05:56:34;;;;;;;40.63;16.20;;;10.80;98.10;;;;;;5071341;28;20377;-68
2021/12/12 05:59:02;;;;;;;33.72;12.32;;;10.80;98.20;;;;;;5065393;28;20221;-68
2021/12/12 06:01:29;;;;;;;42.05;10.75;;;10.80;98.30;;;;;;5069281;28;20403;-69
2021/12/12 06:03:55;;;;;;;28.55;9.32;;;10.80;98.30;;;;;;5067527;28;20097;-68
2021/12/12 06:06:25;;;;;;;39.72;10.25;;;10.90;98.40;;;;;;5070557;28;20498;-68
2021/12/12 06:08:52;;;;;;;40.40;10.87;;;10.90;98.40;;;;;;5071730;28;20032;-68
2021/12/12 06:11:22;;;;;;;46.17;13.68;;;10.90;98.40;;;;;;5069191;28;20366;-68
2021/12/12 06:13:48;;;;;;;39.20;12.05;;;11.00;98.50;;;;;;5067274;28;20138;-68
2021/12/12 06:16:19;;;;;;;44.08;13.90;;;10.90;98.40;;;;;;5069954;28;20039;-68
2021/12/12 06:18:53;;;;;;;37.55;13.65;;;10.90;98.40;;;;;;5067515;28;20032;-68
2021/12/12 06:21:19;;;;;;;36.08;12.45;;;11.00;98.40;;;;;;5071203;28;20032;-68
2021/12/12 06:23:46;;;;;;;36.38;12.68;;;10.90;98.40;;;;;;5074665;28;20036;-68
2021/12/12 06:26:12;;;;;;;30.45;9.52;;;11.00;98.40;;;;;;5067452;28;20104;-69
2021/12/12 06:28:39;;;;;;;31.23;8.60;;;10.90;98.40;;;;;;5066679;28;20107;-68
2021/12/12 06:31:06;;;;;;;43.55;24.77;;;10.90;98.30;;;;;;5067453;28;20025;-68
2021/12/12 06:33:32;;;;;;;50.95;23.90;;;10.90;98.30;;;;;;5067891;28;20033;-69
2021/12/12 06:35:59;;;;;;;42.35;15.20;;;10.90;98.30;;;;;;5070627;28;20031;-68
2021/12/12 06:38:25;;;;;;;38.13;9.38;;;10.90;98.40;;;;;;5067567;28;20475;-68
2021/12/12 06:40:53;;;;;;;41.33;9.32;;;10.90;98.30;;;;;;5066865;28;20025;-68
2021/12/12 06:43:20;;;;;;;33.20;8.93;;;10.90;98.40;;;;;;5066602;28;20072;-68
2021/12/12 06:45:47;;;;;;;38.38;9.82;;;10.90;98.30;;;;;;5068519;28;20399;-68
2021/12/12 06:48:14;;;;;;;37.90;9.50;;;10.90;98.30;;;;;;5068554;28;20032;-68
2021/12/12 06:50:42;;;;;;;41.53;9.20;;;10.90;98.30;;;;;;5071080;28;20509;-68
2021/12/12 06:53:11;;;;;;;40.92;9.57;;;10.90;98.40;;;;;;5066633;28;20035;-68
2021/12/12 06:55:43;;;;;;;36.83;9.82;;;10.90;98.30;;;;;;5066977;28;20538;-68
2021/12/12 06:58:09;;;;;;;47.45;9.98;;;10.90;98.40;;;;;;5068598;28;20032;-68
2021/12/12 07:00:36;;;;;;;40.13;9.40;;;10.90;98.40;;;;;;5068353;28;20032;-68
2021/12/12 07:03:02;;;;;;;41.53;9.73;;;10.90;98.40;;;;;;5068992;28;20017;-68
2021/12/12 07:05:30;;;;;;;32.20;9.75;;;10.90;98.40;;;;;;5068894;28;20040;-68
2021/12/12 07:07:57;;;;;;;37.17;9.25;;;10.90;98.40;;;;;;5066527;28;20024;-68
2021/12/12 07:10:26;;;;;;;34.90;10.00;;;10.90;98.40;;;;;;5065888;28;20137;-68
2021/12/12 07:12:56;;;;;;;37.40;10.02;;;11.00;98.40;;;;;;5068989;28;20036;-68
2021/12/12 07:15:29;;;;;;;32.57;9.30;;;10.90;98.40;;;;;;5067226;28;20117;-68
2021/12/12 07:17:57;;;;;;;37.17;9.27;;;11.00;98.40;;;;;;5067022;28;20063;-68
2021/12/12 07:20:24;;;;;;;31.05;8.68;;;10.90;98.30;;;;;;5069402;28;20024;-68
2021/12/12 07:22:51;;;;;;;33.92;8.55;;;10.90;98.30;;;;;;5071094;28;20111;-68
2021/12/12 07:25:17;;;;;;;33.53;8.52;;;10.90;98.30;;;;;;5067900;28;20077;-68
2021/12/12 07:27:43;;;;;;;31.48;9.05;;;10.90;98.30;;;;;;5066294;28;20033;-68
2021/12/12 07:30:09;;;;;;;33.45;8.48;;;10.90;98.30;;;;;;5068978;28;20033;-68
2021/12/12 07:32:39;;;;;;;33.55;9.40;;;10.80;98.30;;;;;;5071384;28;20026;-69
2021/12/12 07:35:11;;;;;;;32.75;9.90;;;10.80;98.30;;;;;;5068244;28;20039;-69
2021/12/12 07:37:38;;;;;;;39.53;10.10;;;10.80;98.30;;;;;;5065781;28;20043;-68
2021/12/12 07:40:07;;;;;;;34.28;8.95;;;10.80;98.30;;;;;;5067640;28;20040;-68
2021/12/12 07:42:34;;;;;;;36.10;9.35;;;10.90;98.40;;;;;;5066769;28;20056;-68
2021/12/12 07:45:00;;;;;;;41.60;9.60;;;10.90;98.40;;;;;;5069132;28;20035;-68
2021/12/12 07:47:28;;;;;;;37.53;9.18;;;10.90;98.40;;;;;;5067314;28;20031;-68
2021/12/12 07:49:54;;;;;;;33.53;9.27;;;10.90;98.40;;;;;;5065622;28;20139;-69
2021/12/12 07:52:24;;;;;;;34.13;9.95;;;10.90;98.40;;;;;;5068013;28;20462;-69
2021/12/12 07:54:51;;;;;;;37.42;9.63;;;10.90;98.40;;;;;;5068810;28;20495;-69
2021/12/12 07:57:19;;;;;;;41.53;9.50;;;11.00;98.40;;;;;;5071578;28;20108;-70
2021/12/12 07:59:45;;;;;;;37.38;9.85;;;11.00;98.40;;;;;;5072911;28;20122;-70
2021/12/12 08:02:14;;;;;;;41.60;10.27;;;11.00;98.40;;;;;;5071008;28;20033;-70
2021/12/12 08:04:40;;;;;;;39.53;10.88;;;11.10;98.40;;;;;;5071570;28;20094;-71
2021/12/12 08:07:16;;;;;;;40.92;10.90;;;11.00;98.30;;;;;;5069936;28;20035;-70
2021/12/12 08:09:43;;;;;;;47.60;11.77;;;11.10;98.40;;;;;;5066077;28;20060;-70
2021/12/12 08:12:13;;;;;;;27.60;6.85;;;11.10;98.40;;;;;;5072334;28;20041;-70
2021/12/12 08:14:39;;;;;;;55.38;10.98;;;11.10;98.40;;;;;;5071887;28;20055;-70
2021/12/12 08:17:06;;;;;;;50.95;11.07;;;11.10;98.40;;;;;;5070224;28;20060;-70
2021/12/12 08:19:33;;;;;;;41.92;10.25;;;11.20;98.40;;;;;;5069250;28;20076;-69
2021/12/12 08:22:05;;;;;;;43.20;10.13;;;11.20;98.40;;;;;;5071237;28;20016;-68
2021/12/12 08:24:33;;;;;;;36.20;10.35;;;11.20;98.40;;;;;;5078744;28;20167;-68
2021/12/12 08:27:00;;;;;;;39.20;9.35;;;11.20;98.40;;;;;;5075512;28;20078;-68
2021/12/12 08:29:26;;;;;;;27.30;7.63;;;11.20;98.40;;;;;;5072123;28;20116;-68
2021/12/12 08:31:53;;;;;;;34.35;10.02;;;11.30;98.40;;;;;;5070946;28;20051;-70
2021/12/12 08:34:19;;;;;;;35.95;9.60;;;11.30;98.40;;;;;;5071107;28;20063;-70
2021/12/12 08:36:50;;;;;;;31.13;8.73;;;11.40;98.40;;;;;;5069046;28;20013;-70
2021/12/12 08:39:18;;;;;;;25.60;7.72;;;11.40;98.40;;;;;;5070618;28;20033;-70
2021/12/12 08:41:47;;;;;;;20.15;6.50;;;11.50;98.40;;;;;;5072926;28;20055;-69
2021/12/12 08:44:16;;;;;;;46.10;13.32;;;11.50;98.30;;;;;;5065858;28;20062;-71
2021/12/12 08:46:46;;;;;;;27.85;8.57;;;11.50;98.30;;;;;;5066806;28;20506;-71
2021/12/12 08:49:13;;;;;;;26.30;9.20;;;11.60;98.20;;;;;;5056049;28;20036;-70
2021/12/12 08:51:50;;;;;;;21.20;8.38;;;11.60;98.20;;;;;;5067648;28;20033;-70
2021/12/12 08:54:30;;;;;;;24.77;8.07;;;11.70;98.10;;;;;;5070188;28;20085;-71
2021/12/12 08:57:08;;;;;;;27.60;8.70;;;11.70;98.00;;;;;;5072449;28;20097;-70
2021/12/12 08:59:39;;;;;;;27.60;8.98;;;11.80;97.90;;;;;;5072637;28;20036;-70
2021/12/12 09:02:09;;;;;;;30.30;9.38;;;11.80;97.90;;;;;;5069499;28;20387;-71
2021/12/12 09:04:40;;;;;;;24.38;9.13;;;11.90;97.80;;;;;;5066474;28;20062;-70
2021/12/12 09:07:13;;;;;;;24.40;8.55;;;11.90;97.80;;;;;;5068987;28;20033;-71
2021/12/12 09:09:58;;;;;;;22.38;8.05;;;11.90;97.70;;;;;;5064961;28;20503;-70
2021/12/12 09:12:34;;;;;;;22.50;7.40;;;12.00;97.60;;;;;;5066616;28;20565;-71
2021/12/12 09:15:18;;;;;;;26.23;9.35;;;12.10;97.60;;;;;;5067217;28;20024;-71
2021/12/12 09:17:48;;;;;;;25.98;8.68;;;12.10;97.40;;;;;;5068581;28;20083;-70
2021/12/12 09:20:45;;;;;;;22.98;8.07;;;12.20;97.30;;;;;;5063135;28;20431;-70
2021/12/12 09:23:28;;;;;;;19.10;8.32;;;12.20;97.20;;;;;;5065481;28;20133;-73
2021/12/12 09:26:18;;;;;;;18.90;7.35;;;12.20;97.10;;;;;;5066575;28;20036;-73
2021/12/12 09:29:06;;;;;;;23.13;7.85;;;12.30;97.00;;;;;;5077209;28;20028;-71
2021/12/12 09:31:40;;;;;;;88.22;29.30;;;12.30;96.90;;;;;;5067167;28;20025;-71
2021/12/12 09:34:10;;;;;;;22.17;7.78;;;12.40;96.80;;;;;;5064124;28;20037;-73
2021/12/12 09:36:53;;;;;;;19.85;7.82;;;12.50;96.60;;;;;;5069226;28;20028;-72
2021/12/12 09:39:41;;;;;;;26.20;7.80;;;12.50;96.50;;;;;;5060194;28;20082;-72
2021/12/12 09:42:35;;;;;;;20.33;7.35;;;12.60;96.30;;;;;;5069504;28;20752;-72
2021/12/12 09:45:22;;;;;;;18.70;7.57;;;12.60;96.30;;;;;;5071991;28;20063;-70
2021/12/12 09:51:17;;;;;;;21.70;7.47;;;12.50;96.20;;;;;;5071740;28;20075;-72
2021/12/12 09:54:01;;;;;;;18.38;6.63;;;12.50;96.20;;;;;;5071065;28;20106;-72
2021/12/12 09:56:56;;;;;;;18.70;6.80;;;12.50;96.10;;;;;;5069495;28;20075;-72
2021/12/12 09:59:21;;;;;;;19.20;7.30;;;12.60;96.10;;;;;;5068599;28;20060;-76
2021/12/12 10:02:13;;;;;;;17.13;6.43;;;12.60;96.00;;;;;;5067476;28;20059;-74
2021/12/12 10:04:51;;;;;;;17.60;7.13;;;12.60;95.90;;;;;;5067953;28;20036;-73
2021/12/12 10:07:43;;;;;;;17.05;6.57;;;12.70;95.90;;;;;;5067121;28;20075;-73
2021/12/12 10:10:15;;;;;;;12.70;5.38;;;12.70;95.80;;;;;;5068973;28;20020;-73
2021/12/12 10:12:46;;;;;;;15.57;6.40;;;12.70;95.70;;;;;;5067932;28;20036;-73
2021/12/12 10:15:22;;;;;;;13.75;5.75;;;12.70;95.60;;;;;;5069810;28;20029;-72
2021/12/12 10:18:09;;;;;;;14.77;4.90;;;12.80;95.60;;;;;;5070570;28;20033;-72
2021/12/12 10:21:01;;;;;;;11.73;3.92;;;12.80;95.40;;;;;;5070983;28;20016;-73
2021/12/12 10:24:04;;;;;;;12.30;4.53;;;12.80;95.20;;;;;;5072008;28;20433;-72
2021/12/12 10:26:41;;;;;;;9.55;4.30;;;12.90;95.10;;;;;;5070701;28;20060;-73
2021/12/12 10:29:20;;;;;;;13.10;4.60;;;12.90;95.00;;;;;;5067654;28;20017;-70
2021/12/12 10:32:03;;;;;;;12.55;4.70;;;12.90;95.00;;;;;;5067266;28;20035;-70
2021/12/12 10:34:41;;;;;;;10.43;4.63;;;12.90;95.00;;;;;;5067061;28;20023;-71
2021/12/12 10:37:25;;;;;;;9.77;4.32;;;12.90;94.90;;;;;;5066915;28;20040;-70
2021/12/12 10:40:12;;;;;;;10.95;4.53;;;12.90;94.90;;;;;;5069420;28;20032;-71
2021/12/12 10:42:49;;;;;;;12.45;6.00;;;13.00;94.90;;;;;;5054877;28;20055;-70
2021/12/12 10:45:35;;;;;;;13.02;4.90;;;13.00;94.80;;;;;;5063567;28;20462;-71
2021/12/12 10:48:09;;;;;;;13.02;5.72;;;13.00;94.70;;;;;;5065437;28;20037;-73
2021/12/12 10:51:01;;;;;;;11.38;5.40;;;13.10;94.80;;;;;;5067465;28;20074;-73
2021/12/12 10:53:56;;;;;;;10.35;4.97;;;13.10;94.90;;;;;;5063747;28;20074;-73
2021/12/12 10:56:50;;;;;;;9.35;4.97;;;13.10;94.90;;;;;;5066488;28;20032;-72
2021/12/12 10:59:36;;;;;;;11.50;4.57;;;13.10;94.80;;;;;;5061895;28;20028;-72
2021/12/12 11:02:07;;;;;;;11.43;4.93;;;13.20;94.80;;;;;;5062989;28;20107;-72
2021/12/12 11:04:38;;;;;;;;;;;13.20;94.80;;;;;;5065552;28;20032;-72
2021/12/12 11:07:18;;;;;;;8.90;4.10;;;13.20;94.80;;;;;;5063087;28;19967;-72
2021/12/12 11:09:56;;;;;;;30.15;13.38;;;13.30;94.70;;;;;;5066070;28;20017;-72
2021/12/12 11:12:29;;;;;;;5.93;3.65;;;13.30;94.70;;;;;;5066979;28;20037;-72
2021/12/12 11:15:19;;;;;;;10.23;3.78;;;13.30;94.60;;;;;;5067910;28;20020;-73
2021/12/12 11:18:03;;;;;;;9.45;4.00;;;13.30;94.00;;;;;;5062753;28;20032;-72
2021/12/12 11:20:34;;;;;;;8.23;3.80;;;13.40;93.80;;;;;;5066819;28;20395;-73
2021/12/12 11:23:18;;;;;;;9.70;4.00;;;13.40;93.60;;;;;;5068675;28;20763;-72
2021/12/12 11:25:50;;;;;;;8.68;3.88;;;13.40;93.60;;;;;;5057707;28;20595;-73
2021/12/12 11:28:41;;;;;;;10.88;3.75;;;13.40;93.40;;;;;;5072427;28;20029;-73
2021/12/12 11:31:12;;;;;;;8.63;3.50;;;13.50;93.50;;;;;;5061352;28;20029;-72
2021/12/12 11:33:39;;;;;;;;;;;13.50;93.40;;;;;;5062132;28;20032;-73
2021/12/12 11:36:08;;;;;;;11.93;4.68;;;13.50;93.20;;;;;;5059526;28;19909;-74
2021/12/12 11:38:43;;;;;;;10.68;5.38;;;13.50;93.30;;;;;;5069630;28;20028;-73
2021/12/12 11:41:25;;;;;;;10.65;4.82;;;13.50;93.20;;;;;;5066229;28;20032;-75
2021/12/12 11:44:29;;;;;;;10.10;4.93;;;13.50;93.00;;;;;;5065695;28;20043;-75
2021/12/12 11:47:25;;;;;;;11.82;4.90;;;13.60;93.10;;;;;;5062772;28;20025;-77
2021/12/12 11:50:01;;;;;;;15.52;9.55;;;13.70;93.00;;;;;;5067299;28;20075;-72
2021/12/12 11:52:43;;;;;;;11.23;4.05;;;13.70;92.80;;;;;;5068245;28;20029;-73
2021/12/12 11:55:47;;;;;;;8.93;3.78;;;13.80;93.00;;;;;;5066123;28;20023;-72
2021/12/12 11:58:15;;;;;;;12.20;4.32;;;13.90;93.00;;;;;;5066356;28;20029;-72
2021/12/12 12:00:49;;;;;;;9.77;4.15;;;13.90;92.70;;;;;;5067243;28;20025;-71
2021/12/12 12:03:38;;;;;;;8.15;3.78;;;13.90;92.90;;;;;;5067758;28;20020;-72
2021/12/12 12:06:40;;;;;;;7.88;3.65;;;13.90;92.60;;;;;;5065565;28;20055;-72
2021/12/12 12:09:18;;;;;;;6.30;2.67;;;14.00;92.90;;;;;;5067094;28;20029;-72
2021/12/12 12:11:47;;;;;;;9.20;3.50;;;14.00;92.30;;;;;;5067328;28;20044;-71
2021/12/12 12:14:35;;;;;;;12.45;3.40;;;14.00;92.20;;;;;;5068670;28;20558;-72
2021/12/12 12:17:19;;;;;;;12.40;3.75;;;14.10;92.20;;;;;;5068047;28;20036;-72
2021/12/12 12:20:21;;;;;;;10.05;3.83;;;14.10;92.20;;;;;;5064925;28;20029;-71
2021/12/12 12:23:02;;;;;;;8.82;3.30;;;14.10;92.20;;;;;;5066514;28;20028;-71
2021/12/12 12:25:39;;;;;;;;;;;14.10;92.20;;;;;;5068438;28;20063;-72
2021/12/12 12:28:09;;;;;;;10.20;4.00;;;14.10;92.40;;;;;;5066677;28;19908;-73
2021/12/12 12:30:58;;;;;;;11.75;4.40;;;14.00;92.20;;;;;;5062681;28;20090;-71
2021/12/12 12:33:42;;;;;;;13.23;4.40;;;14.00;92.50;;;;;;5052374;28;20043;-71
2021/12/12 12:36:40;;;;;;;12.60;3.90;;;14.00;92.60;;;;;;5061994;28;20499;-72
2021/12/12 12:39:30;;;;;;;13.15;4.00;;;14.00;92.40;;;;;;5055546;28;20511;-72
2021/12/12 12:42:21;;;;;;;13.15;3.95;;;14.00;92.40;;;;;;5067962;28;20032;-73
2021/12/12 12:45:24;;;;;;;13.65;4.18;;;14.00;92.30;;;;;;5071452;28;20028;-73
2021/12/12 12:48:12;;;;;;;11.05;3.70;;;14.00;92.60;;;;;;5068939;28;20032;-74
2021/12/12 12:51:03;;;;;;;10.55;3.30;;;13.90;92.70;;;;;;5069000;28;20028;-73
2021/12/12 12:54:05;;;;;;;13.20;3.65;;;13.90;92.80;;;;;;5058746;28;20068;-74
2021/12/12 12:57:09;;;;;;;12.77;3.72;;;14.00;92.70;;;;;;5070523;28;20040;-74
2021/12/12 12:59:57;;;;;;;12.10;3.65;;;14.00;92.50;;;;;;5065859;28;20087;-74
2021/12/12 13:02:34;;;;;;;14.60;4.43;;;14.00;92.60;;;;;;5067651;28;20086;-74
2021/12/12 13:05:06;;;;;;;11.38;4.22;;;14.00;92.70;;;;;;5066422;28;20040;-74
2021/12/12 13:07:41;;;;;;;11.80;3.72;;;14.00;92.30;;;;;;5066871;28;20016;-74
2021/12/12 13:10:23;;;;;;;10.75;3.40;;;14.00;92.40;;;;;;5068684;28;20029;-74
2021/12/12 13:13:08;;;;;;;9.23;3.10;;;14.00;92.20;;;;;;5064425;28;20510;-75
2021/12/12 13:16:33;;;;;;;10.50;3.15;;;14.00;92.00;;;;;;5053976;28;20048;-76
2021/12/12 13:19:08;;;;;;;7.20;3.63;;;14.10;92.00;;;;;;4971781;28;20097;-76
2021/12/12 13:22:07;;;;;;;11.82;4.03;;;14.10;92.00;;;;;;4967975;28;20026;-74
2021/12/12 13:25:05;;;;;;;13.10;3.28;;;14.10;92.00;;;;;;4970130;28;20526;-72
2021/12/12 13:30:40;;;;;;;9.05;3.42;;;14.10;92.10;;;;;;4967451;28;20046;-76
2021/12/12 13:33:28;;;;;;;10.55;3.90;;;14.10;91.90;;;;;;4968175;28;20482;-75
2021/12/12 13:36:17;;;;;;;6.93;3.40;;;14.00;92.20;;;;;;4964206;28;20070;-75